sensor_id;sensor_type;location;lat;lon;timestamp;P1;durP1;ratioP1;P2;durP2;ratioP2
17832;SDS011;9041;49.718;21.798;2023-07-02T00:01:32;24.67;;;16.90;;
17832;SDS011;9041;49.718;21.798;2023-07-02T00:03:58;24.95;;;17.17;;
17832;SDS011;9041;49.718;21.798;2023-07-02T00:06:25;25.45;;;16.98;;
17832;SDS011;9041;49.718;21.798;2023-07-02T00:08:51;26.23;;;16.98;;
17832;SDS011;9041;49.718;21.798;2023-07-02T00:11:18;21.38;;;15.90;;
17832;SDS011;9041;49.718;21.798;2023-07-02T00:13:46;20.83;;;15.90;;
17832;SDS011;9041;49.718;21.798;2023-07-02T00:16:13;25.55;;;16.83;;
17832;SDS011;9041;49.718;21.798;2023-07-02T00:18:39;27.25;;;18.00;;
17832;SDS011;9041;49.718;21.798;2023-07-02T00:21:06;24.45;;;16.67;;
17832;SDS011;9041;49.718;21.798;2023-07-02T00:23:33;23.88;;;16.42;;
17832;SDS011;9041;49.718;21.798;2023-07-02T00:25:59;23.67;;;17.27;;
17832;SDS011;9041;49.718;21.798;2023-07-02T00:28:26;25.38;;;17.00;;
17832;SDS011;9041;49.718;21.798;2023-07-02T00:30:54;23.95;;;16.75;;
17832;SDS011;9041;49.718;21.798;2023-07-02T00:33:21;22.20;;;16.40;;
17832;SDS011;9041;49.718;21.798;2023-07-02T00:35:49;22.75;;;16.63;;
17832;SDS011;9041;49.718;21.798;2023-07-02T00:38:15;27.98;;;16.75;;
17832;SDS011;9041;49.718;21.798;2023-07-02T00:40:42;20.90;;;16.58;;
17832;SDS011;9041;49.718;21.798;2023-07-02T00:43:08;24.48;;;17.63;;
17832;SDS011;9041;49.718;21.798;2023-07-02T00:45:37;24.52;;;17.48;;
17832;SDS011;9041;49.718;21.798;2023-07-02T00:48:06;22.40;;;17.45;;
17832;SDS011;9041;49.718;21.798;2023-07-02T00:50:32;31.75;;;17.70;;
17832;SDS011;9041;49.718;21.798;2023-07-02T00:52:59;31.13;;;18.02;;
17832;SDS011;9041;49.718;21.798;2023-07-02T00:55:26;24.65;;;17.63;;
17832;SDS011;9041;49.718;21.798;2023-07-02T00:57:53;27.33;;;18.63;;
17832;SDS011;9041;49.718;21.798;2023-07-02T01:00:21;24.85;;;18.45;;
17832;SDS011;9041;49.718;21.798;2023-07-02T01:02:52;23.95;;;17.75;;
17832;SDS011;9041;49.718;21.798;2023-07-02T01:05:25;25.48;;;18.27;;
17832;SDS011;9041;49.718;21.798;2023-07-02T01:07:57;26.63;;;18.58;;
17832;SDS011;9041;49.718;21.798;2023-07-02T01:10:24;26.85;;;18.73;;
17832;SDS011;9041;49.718;21.798;2023-07-02T01:12:51;24.48;;;18.95;;
17832;SDS011;9041;49.718;21.798;2023-07-02T01:15:18;23.15;;;18.23;;
17832;SDS011;9041;49.718;21.798;2023-07-02T01:17:46;27.38;;;19.33;;
17832;SDS011;9041;49.718;21.798;2023-07-02T01:20:15;30.38;;;18.77;;
17832;SDS011;9041;49.718;21.798;2023-07-02T01:22:41;26.00;;;18.75;;
17832;SDS011;9041;49.718;21.798;2023-07-02T01:25:08;27.58;;;18.73;;
17832;SDS011;9041;49.718;21.798;2023-07-02T01:27:34;26.52;;;18.73;;
17832;SDS011;9041;49.718;21.798;2023-07-02T01:30:02;28.77;;;18.50;;
17832;SDS011;9041;49.718;21.798;2023-07-02T01:32:29;30.27;;;19.08;;
17832;SDS011;9041;49.718;21.798;2023-07-02T01:34:56;22.95;;;17.92;;
17832;SDS011;9041;49.718;21.798;2023-07-02T01:37:25;27.55;;;17.70;;
17832;SDS011;9041;49.718;21.798;2023-07-02T01:39:51;25.85;;;17.70;;
17832;SDS011;9041;49.718;21.798;2023-07-02T01:42:18;24.15;;;17.92;;
17832;SDS011;9041;49.718;21.798;2023-07-02T01:44:46;24.17;;;18.08;;
17832;SDS011;9041;49.718;21.798;2023-07-02T01:47:13;23.90;;;17.13;;
17832;SDS011;9041;49.718;21.798;2023-07-02T01:49:40;27.75;;;17.58;;
17832;SDS011;9041;49.718;21.798;2023-07-02T01:52:07;26.52;;;17.73;;
17832;SDS011;9041;49.718;21.798;2023-07-02T01:54:35;30.60;;;17.27;;
17832;SDS011;9041;49.718;21.798;2023-07-02T01:57:02;25.63;;;16.60;;
17832;SDS011;9041;49.718;21.798;2023-07-02T01:59:29;21.17;;;16.45;;
17832;SDS011;9041;49.718;21.798;2023-07-02T02:01:56;22.88;;;17.15;;
17832;SDS011;9041;49.718;21.798;2023-07-02T02:04:23;21.13;;;15.90;;
17832;SDS011;9041;49.718;21.798;2023-07-02T02:06:49;24.42;;;15.95;;
17832;SDS011;9041;49.718;21.798;2023-07-02T02:09:17;22.88;;;16.42;;
17832;SDS011;9041;49.718;21.798;2023-07-02T02:11:47;25.40;;;15.35;;
17832;SDS011;9041;49.718;21.798;2023-07-02T02:14:15;22.35;;;15.00;;
17832;SDS011;9041;49.718;21.798;2023-07-02T02:16:41;21.38;;;14.57;;
17832;SDS011;9041;49.718;21.798;2023-07-02T02:19:10;18.58;;;13.95;;
17832;SDS011;9041;49.718;21.798;2023-07-02T02:21:37;20.98;;;14.52;;
17832;SDS011;9041;49.718;21.798;2023-07-02T02:24:03;17.98;;;14.32;;
17832;SDS011;9041;49.718;21.798;2023-07-02T02:26:31;19.95;;;14.88;;
17832;SDS011;9041;49.718;21.798;2023-07-02T02:28:59;20.20;;;14.50;;
17832;SDS011;9041;49.718;21.798;2023-07-02T02:31:26;20.27;;;14.00;;
17832;SDS011;9041;49.718;21.798;2023-07-02T02:33:53;19.40;;;13.95;;
17832;SDS011;9041;49.718;21.798;2023-07-02T02:36:19;17.88;;;14.52;;
17832;SDS011;9041;49.718;21.798;2023-07-02T02:38:46;16.83;;;13.20;;
17832;SDS011;9041;49.718;21.798;2023-07-02T02:41:12;23.05;;;14.93;;
17832;SDS011;9041;49.718;21.798;2023-07-02T02:43:40;23.33;;;14.63;;
17832;SDS011;9041;49.718;21.798;2023-07-02T02:46:09;24.45;;;15.73;;
17832;SDS011;9041;49.718;21.798;2023-07-02T02:48:35;21.88;;;15.00;;
17832;SDS011;9041;49.718;21.798;2023-07-02T02:51:02;21.73;;;14.63;;
17832;SDS011;9041;49.718;21.798;2023-07-02T02:53:29;20.08;;;14.35;;
17832;SDS011;9041;49.718;21.798;2023-07-02T02:55:55;24.70;;;15.85;;
17832;SDS011;9041;49.718;21.798;2023-07-02T02:58:22;22.55;;;15.80;;
17832;SDS011;9041;49.718;21.798;2023-07-02T03:00:48;22.15;;;16.65;;
17832;SDS011;9041;49.718;21.798;2023-07-02T03:03:18;26.20;;;14.98;;
17832;SDS011;9041;49.718;21.798;2023-07-02T03:05:45;25.80;;;15.98;;
17832;SDS011;9041;49.718;21.798;2023-07-02T03:08:13;23.27;;;16.45;;
17832;SDS011;9041;49.718;21.798;2023-07-02T03:10:40;24.77;;;17.48;;
17832;SDS011;9041;49.718;21.798;2023-07-02T03:13:07;26.55;;;16.92;;
17832;SDS011;9041;49.718;21.798;2023-07-02T03:15:33;25.92;;;18.45;;
17832;SDS011;9041;49.718;21.798;2023-07-02T03:18:00;24.30;;;16.20;;
17832;SDS011;9041;49.718;21.798;2023-07-02T03:20:28;23.02;;;16.55;;
17832;SDS011;9041;49.718;21.798;2023-07-02T03:22:54;23.45;;;16.98;;
17832;SDS011;9041;49.718;21.798;2023-07-02T03:25:21;27.73;;;17.02;;
17832;SDS011;9041;49.718;21.798;2023-07-02T03:27:47;27.00;;;17.13;;
17832;SDS011;9041;49.718;21.798;2023-07-02T03:30:14;23.20;;;16.88;;
17832;SDS011;9041;49.718;21.798;2023-07-02T03:32:40;26.90;;;16.92;;
17832;SDS011;9041;49.718;21.798;2023-07-02T03:35:07;26.02;;;16.25;;
17832;SDS011;9041;49.718;21.798;2023-07-02T03:37:35;26.08;;;16.10;;
17832;SDS011;9041;49.718;21.798;2023-07-02T03:40:02;25.95;;;17.25;;
17832;SDS011;9041;49.718;21.798;2023-07-02T03:42:29;30.70;;;18.67;;
17832;SDS011;9041;49.718;21.798;2023-07-02T03:44:55;33.97;;;17.85;;
17832;SDS011;9041;49.718;21.798;2023-07-02T03:47:22;25.17;;;18.35;;
17832;SDS011;9041;49.718;21.798;2023-07-02T03:49:49;26.30;;;17.63;;
17832;SDS011;9041;49.718;21.798;2023-07-02T03:52:15;31.05;;;18.67;;
17832;SDS011;9041;49.718;21.798;2023-07-02T03:54:43;26.98;;;18.17;;
17832;SDS011;9041;49.718;21.798;2023-07-02T03:57:10;26.98;;;18.00;;
17832;SDS011;9041;49.718;21.798;2023-07-02T03:59:37;30.08;;;19.33;;
17832;SDS011;9041;49.718;21.798;2023-07-02T04:02:04;26.60;;;18.42;;
17832;SDS011;9041;49.718;21.798;2023-07-02T04:04:31;28.27;;;19.00;;
17832;SDS011;9041;49.718;21.798;2023-07-02T04:06:57;28.90;;;18.88;;
17832;SDS011;9041;49.718;21.798;2023-07-02T04:09:24;27.40;;;18.90;;
17832;SDS011;9041;49.718;21.798;2023-07-02T04:11:52;29.33;;;19.52;;
17832;SDS011;9041;49.718;21.798;2023-07-02T04:14:19;28.35;;;19.55;;
17832;SDS011;9041;49.718;21.798;2023-07-02T04:16:45;27.77;;;19.88;;
17832;SDS011;9041;49.718;21.798;2023-07-02T04:19:12;30.58;;;19.90;;
17832;SDS011;9041;49.718;21.798;2023-07-02T04:21:39;26.88;;;19.25;;
17832;SDS011;9041;49.718;21.798;2023-07-02T04:24:05;30.05;;;20.42;;
17832;SDS011;9041;49.718;21.798;2023-07-02T04:26:32;33.08;;;19.95;;
17832;SDS011;9041;49.718;21.798;2023-07-02T04:29:00;32.78;;;20.58;;
17832;SDS011;9041;49.718;21.798;2023-07-02T04:31:27;33.33;;;20.80;;
17832;SDS011;9041;49.718;21.798;2023-07-02T04:33:54;31.67;;;20.77;;
17832;SDS011;9041;49.718;21.798;2023-07-02T04:36:20;30.27;;;19.92;;
17832;SDS011;9041;49.718;21.798;2023-07-02T04:38:47;30.90;;;21.05;;
17832;SDS011;9041;49.718;21.798;2023-07-02T04:41:13;29.35;;;20.60;;
17832;SDS011;9041;49.718;21.798;2023-07-02T04:43:40;26.63;;;19.08;;
17832;SDS011;9041;49.718;21.798;2023-07-02T04:46:08;28.65;;;20.52;;
17832;SDS011;9041;49.718;21.798;2023-07-02T04:48:37;26.58;;;19.05;;
17832;SDS011;9041;49.718;21.798;2023-07-02T04:51:04;32.13;;;18.55;;
17832;SDS011;9041;49.718;21.798;2023-07-02T04:53:31;25.42;;;18.38;;
17832;SDS011;9041;49.718;21.798;2023-07-02T04:55:57;24.98;;;17.63;;
17832;SDS011;9041;49.718;21.798;2023-07-02T04:58:24;27.10;;;18.30;;
17832;SDS011;9041;49.718;21.798;2023-07-02T05:00:50;25.15;;;18.48;;
17832;SDS011;9041;49.718;21.798;2023-07-02T05:03:18;27.23;;;17.70;;
17832;SDS011;9041;49.718;21.798;2023-07-02T05:05:45;29.80;;;19.27;;
17832;SDS011;9041;49.718;21.798;2023-07-02T05:08:11;23.17;;;17.52;;
17832;SDS011;9041;49.718;21.798;2023-07-02T05:10:38;22.63;;;16.00;;
17832;SDS011;9041;49.718;21.798;2023-07-02T05:13:05;23.02;;;16.42;;
17832;SDS011;9041;49.718;21.798;2023-07-02T05:15:31;23.77;;;16.40;;
17832;SDS011;9041;49.718;21.798;2023-07-02T05:17:58;23.77;;;17.15;;
17832;SDS011;9041;49.718;21.798;2023-07-02T05:20:26;19.70;;;15.00;;
17832;SDS011;9041;49.718;21.798;2023-07-02T05:22:52;23.08;;;16.38;;
17832;SDS011;9041;49.718;21.798;2023-07-02T05:25:19;23.48;;;16.42;;
17832;SDS011;9041;49.718;21.798;2023-07-02T05:27:45;26.42;;;16.80;;
17832;SDS011;9041;49.718;21.798;2023-07-02T05:30:12;23.58;;;16.48;;
17832;SDS011;9041;49.718;21.798;2023-07-02T05:32:40;24.33;;;17.25;;
17832;SDS011;9041;49.718;21.798;2023-07-02T05:35:06;22.55;;;15.90;;
17832;SDS011;9041;49.718;21.798;2023-07-02T05:37:35;22.23;;;16.17;;
17832;SDS011;9041;49.718;21.798;2023-07-02T05:40:02;23.55;;;16.85;;
17832;SDS011;9041;49.718;21.798;2023-07-02T05:42:29;23.60;;;17.20;;
17832;SDS011;9041;49.718;21.798;2023-07-02T05:44:55;23.40;;;15.73;;
17832;SDS011;9041;49.718;21.798;2023-07-02T05:47:22;22.40;;;16.08;;
17832;SDS011;9041;49.718;21.798;2023-07-02T05:49:48;22.63;;;16.73;;
17832;SDS011;9041;49.718;21.798;2023-07-02T05:52:15;22.95;;;15.05;;
17832;SDS011;9041;49.718;21.798;2023-07-02T05:54:45;23.08;;;16.10;;
17832;SDS011;9041;49.718;21.798;2023-07-02T05:57:11;24.67;;;16.35;;
17832;SDS011;9041;49.718;21.798;2023-07-02T05:59:38;24.15;;;15.70;;
17832;SDS011;9041;49.718;21.798;2023-07-02T06:02:05;26.23;;;16.02;;
17832;SDS011;9041;49.718;21.798;2023-07-02T06:04:31;24.50;;;16.95;;
17832;SDS011;9041;49.718;21.798;2023-07-02T06:06:58;23.25;;;15.52;;
17832;SDS011;9041;49.718;21.798;2023-07-02T06:09:25;21.67;;;15.25;;
17832;SDS011;9041;49.718;21.798;2023-07-02T06:11:53;21.25;;;15.38;;
17832;SDS011;9041;49.718;21.798;2023-07-02T06:14:20;20.52;;;14.63;;
17832;SDS011;9041;49.718;21.798;2023-07-02T06:16:46;25.05;;;15.65;;
17832;SDS011;9041;49.718;21.798;2023-07-02T06:19:13;22.20;;;13.57;;
17832;SDS011;9041;49.718;21.798;2023-07-02T06:21:40;21.20;;;14.45;;
17832;SDS011;9041;49.718;21.798;2023-07-02T06:24:07;20.02;;;14.07;;
17832;SDS011;9041;49.718;21.798;2023-07-02T06:26:33;19.13;;;14.45;;
17832;SDS011;9041;49.718;21.798;2023-07-02T06:29:01;22.67;;;14.90;;
17832;SDS011;9041;49.718;21.798;2023-07-02T06:31:28;20.20;;;13.77;;
17832;SDS011;9041;49.718;21.798;2023-07-02T06:33:55;23.15;;;14.57;;
17832;SDS011;9041;49.718;21.798;2023-07-02T06:36:21;18.73;;;14.05;;
17832;SDS011;9041;49.718;21.798;2023-07-02T06:38:48;19.30;;;13.98;;
17832;SDS011;9041;49.718;21.798;2023-07-02T06:41:15;19.15;;;13.55;;
17832;SDS011;9041;49.718;21.798;2023-07-02T06:43:42;21.25;;;13.25;;
17832;SDS011;9041;49.718;21.798;2023-07-02T06:46:11;23.25;;;13.82;;
17832;SDS011;9041;49.718;21.798;2023-07-02T06:48:38;21.52;;;13.77;;
17832;SDS011;9041;49.718;21.798;2023-07-02T06:51:04;21.77;;;14.25;;
17832;SDS011;9041;49.718;21.798;2023-07-02T06:53:32;19.08;;;13.65;;
17832;SDS011;9041;49.718;21.798;2023-07-02T06:55:58;18.98;;;13.63;;
17832;SDS011;9041;49.718;21.798;2023-07-02T06:58:25;19.50;;;13.63;;
17832;SDS011;9041;49.718;21.798;2023-07-02T07:00:52;16.95;;;12.95;;
17832;SDS011;9041;49.718;21.798;2023-07-02T07:03:20;18.85;;;13.23;;
17832;SDS011;9041;49.718;21.798;2023-07-02T07:05:47;16.77;;;12.55;;
17832;SDS011;9041;49.718;21.798;2023-07-02T07:08:13;17.35;;;13.15;;
17832;SDS011;9041;49.718;21.798;2023-07-02T07:10:40;18.63;;;12.75;;
17832;SDS011;9041;49.718;21.798;2023-07-02T07:13:07;17.10;;;12.48;;
17832;SDS011;9041;49.718;21.798;2023-07-02T07:15:34;16.45;;;12.27;;
17832;SDS011;9041;49.718;21.798;2023-07-02T07:18:00;18.88;;;11.95;;
17832;SDS011;9041;49.718;21.798;2023-07-02T07:20:29;15.60;;;11.55;;
17832;SDS011;9041;49.718;21.798;2023-07-02T07:22:56;18.23;;;11.20;;
17832;SDS011;9041;49.718;21.798;2023-07-02T07:25:22;16.60;;;11.07;;
17832;SDS011;9041;49.718;21.798;2023-07-02T07:27:49;18.92;;;11.05;;
17832;SDS011;9041;49.718;21.798;2023-07-02T07:30:16;19.95;;;11.45;;
17832;SDS011;9041;49.718;21.798;2023-07-02T07:32:47;14.02;;;10.68;;
17832;SDS011;9041;49.718;21.798;2023-07-02T07:35:14;15.90;;;10.52;;
17832;SDS011;9041;49.718;21.798;2023-07-02T07:37:42;17.33;;;10.60;;
17832;SDS011;9041;49.718;21.798;2023-07-02T07:40:09;12.57;;;8.90;;
17832;SDS011;9041;49.718;21.798;2023-07-02T07:42:36;11.60;;;8.52;;
17832;SDS011;9041;49.718;21.798;2023-07-02T07:45:03;11.95;;;9.27;;
17832;SDS011;9041;49.718;21.798;2023-07-02T07:47:30;13.18;;;8.55;;
17832;SDS011;9041;49.718;21.798;2023-07-02T07:49:57;14.35;;;9.15;;
17832;SDS011;9041;49.718;21.798;2023-07-02T07:52:24;13.60;;;9.13;;
17832;SDS011;9041;49.718;21.798;2023-07-02T07:54:52;13.43;;;9.10;;
17832;SDS011;9041;49.718;21.798;2023-07-02T07:57:18;17.60;;;8.88;;
17832;SDS011;9041;49.718;21.798;2023-07-02T07:59:45;13.38;;;8.73;;
17832;SDS011;9041;49.718;21.798;2023-07-02T08:02:12;13.48;;;8.30;;
17832;SDS011;9041;49.718;21.798;2023-07-02T08:04:38;15.07;;;7.97;;
17832;SDS011;9041;49.718;21.798;2023-07-02T08:07:05;11.35;;;8.68;;
17832;SDS011;9041;49.718;21.798;2023-07-02T08:09:34;15.60;;;8.88;;
17832;SDS011;9041;49.718;21.798;2023-07-02T08:12:02;11.77;;;7.57;;
17832;SDS011;9041;49.718;21.798;2023-07-02T08:14:29;11.30;;;7.45;;
17832;SDS011;9041;49.718;21.798;2023-07-02T08:16:56;14.68;;;8.88;;
17832;SDS011;9041;49.718;21.798;2023-07-02T08:19:23;13.10;;;7.68;;
17832;SDS011;9041;49.718;21.798;2023-07-02T08:21:49;9.27;;;7.15;;
17832;SDS011;9041;49.718;21.798;2023-07-02T08:24:16;9.90;;;7.05;;
17832;SDS011;9041;49.718;21.798;2023-07-02T08:26:43;9.30;;;7.10;;
17832;SDS011;9041;49.718;21.798;2023-07-02T08:29:13;10.82;;;7.47;;
17832;SDS011;9041;49.718;21.798;2023-07-02T08:31:39;9.65;;;7.50;;
17832;SDS011;9041;49.718;21.798;2023-07-02T08:34:06;12.60;;;8.30;;
17832;SDS011;9041;49.718;21.798;2023-07-02T08:36:33;10.20;;;7.85;;
17832;SDS011;9041;49.718;21.798;2023-07-02T08:39:00;11.90;;;8.15;;
17832;SDS011;9041;49.718;21.798;2023-07-02T08:41:26;13.43;;;7.68;;
17832;SDS011;9041;49.718;21.798;2023-07-02T08:43:54;14.45;;;8.73;;
17832;SDS011;9041;49.718;21.798;2023-07-02T08:46:23;13.02;;;8.18;;
17832;SDS011;9041;49.718;21.798;2023-07-02T08:48:49;11.93;;;9.05;;
17832;SDS011;9041;49.718;21.798;2023-07-02T08:51:16;14.45;;;8.27;;
17832;SDS011;9041;49.718;21.798;2023-07-02T08:53:43;19.17;;;9.30;;
17832;SDS011;9041;49.718;21.798;2023-07-02T08:56:10;15.65;;;7.97;;
17832;SDS011;9041;49.718;21.798;2023-07-02T08:58:37;11.10;;;7.68;;
17832;SDS011;9041;49.718;21.798;2023-07-02T09:01:04;14.30;;;8.48;;
17832;SDS011;9041;49.718;21.798;2023-07-02T09:03:32;14.13;;;8.38;;
17832;SDS011;9041;49.718;21.798;2023-07-02T09:05:59;13.27;;;8.10;;
17832;SDS011;9041;49.718;21.798;2023-07-02T09:08:26;11.48;;;7.93;;
17832;SDS011;9041;49.718;21.798;2023-07-02T09:10:53;11.57;;;7.78;;
17832;SDS011;9041;49.718;21.798;2023-07-02T09:13:20;10.50;;;7.63;;
17832;SDS011;9041;49.718;21.798;2023-07-02T09:15:47;9.05;;;6.90;;
17832;SDS011;9041;49.718;21.798;2023-07-02T09:18:14;9.20;;;6.90;;
17832;SDS011;9041;49.718;21.798;2023-07-02T09:20:43;12.05;;;7.40;;
17832;SDS011;9041;49.718;21.798;2023-07-02T09:23:10;11.50;;;7.72;;
17832;SDS011;9041;49.718;21.798;2023-07-02T09:25:37;10.95;;;7.10;;
17832;SDS011;9041;49.718;21.798;2023-07-02T09:28:13;15.55;;;7.93;;
17832;SDS011;9041;49.718;21.798;2023-07-02T09:30:48;8.88;;;7.03;;
17832;SDS011;9041;49.718;21.798;2023-07-02T09:33:16;11.18;;;7.30;;
17832;SDS011;9041;49.718;21.798;2023-07-02T09:35:44;12.23;;;7.28;;
17832;SDS011;9041;49.718;21.798;2023-07-02T09:38:10;18.00;;;7.20;;
17832;SDS011;9041;49.718;21.798;2023-07-02T09:40:38;14.13;;;7.70;;
17832;SDS011;9041;49.718;21.798;2023-07-02T09:43:11;11.55;;;7.32;;
17832;SDS011;9041;49.718;21.798;2023-07-02T09:45:38;10.98;;;7.15;;
17832;SDS011;9041;49.718;21.798;2023-07-02T09:48:09;11.98;;;7.82;;
17832;SDS011;9041;49.718;21.798;2023-07-02T09:50:38;14.55;;;8.30;;
17832;SDS011;9041;49.718;21.798;2023-07-02T09:53:07;11.50;;;7.10;;
17832;SDS011;9041;49.718;21.798;2023-07-02T09:55:33;13.52;;;7.20;;
17832;SDS011;9041;49.718;21.798;2023-07-02T09:58:00;13.98;;;7.68;;
17832;SDS011;9041;49.718;21.798;2023-07-02T10:00:26;11.85;;;7.25;;
17832;SDS011;9041;49.718;21.798;2023-07-02T10:02:53;11.93;;;7.10;;
17832;SDS011;9041;49.718;21.798;2023-07-02T10:05:27;11.55;;;7.20;;
17832;SDS011;9041;49.718;21.798;2023-07-02T10:07:55;14.25;;;7.30;;
17832;SDS011;9041;49.718;21.798;2023-07-02T10:10:30;11.73;;;7.28;;
17832;SDS011;9041;49.718;21.798;2023-07-02T10:13:07;12.45;;;7.80;;
17832;SDS011;9041;49.718;21.798;2023-07-02T10:15:33;11.30;;;7.10;;
17832;SDS011;9041;49.718;21.798;2023-07-02T10:18:03;10.43;;;6.88;;
17832;SDS011;9041;49.718;21.798;2023-07-02T10:20:34;11.30;;;7.18;;
17832;SDS011;9041;49.718;21.798;2023-07-02T10:23:02;12.48;;;7.03;;
17832;SDS011;9041;49.718;21.798;2023-07-02T10:25:30;15.45;;;8.48;;
17832;SDS011;9041;49.718;21.798;2023-07-02T10:27:59;17.13;;;10.15;;
17832;SDS011;9041;49.718;21.798;2023-07-02T10:30:30;14.50;;;7.47;;
17832;SDS011;9041;49.718;21.798;2023-07-02T10:33:06;10.80;;;6.40;;
17832;SDS011;9041;49.718;21.798;2023-07-02T10:35:33;7.68;;;5.60;;
17832;SDS011;9041;49.718;21.798;2023-07-02T10:38:00;9.45;;;5.00;;
17832;SDS011;9041;49.718;21.798;2023-07-02T10:40:27;12.20;;;6.07;;
17832;SDS011;9041;49.718;21.798;2023-07-02T10:42:56;6.90;;;4.70;;
17832;SDS011;9041;49.718;21.798;2023-07-02T10:45:30;8.02;;;4.80;;
17832;SDS011;9041;49.718;21.798;2023-07-02T10:47:57;10.60;;;4.80;;
17832;SDS011;9041;49.718;21.798;2023-07-02T10:50:24;7.07;;;4.30;;
17832;SDS011;9041;49.718;21.798;2023-07-02T10:52:53;8.05;;;5.07;;
17832;SDS011;9041;49.718;21.798;2023-07-02T10:55:20;7.32;;;5.03;;
17832;SDS011;9041;49.718;21.798;2023-07-02T10:57:46;7.78;;;4.35;;
17832;SDS011;9041;49.718;21.798;2023-07-02T11:00:15;13.15;;;4.78;;
17832;SDS011;9041;49.718;21.798;2023-07-02T11:02:42;6.95;;;4.40;;
17832;SDS011;9041;49.718;21.798;2023-07-02T11:05:09;8.10;;;4.03;;
17832;SDS011;9041;49.718;21.798;2023-07-02T11:07:37;8.52;;;5.55;;
17832;SDS011;9041;49.718;21.798;2023-07-02T11:10:04;9.57;;;5.75;;
17832;SDS011;9041;49.718;21.798;2023-07-02T11:12:31;10.13;;;6.13;;
17832;SDS011;9041;49.718;21.798;2023-07-02T11:17:42;8.50;;;4.93;;
17832;SDS011;9041;49.718;21.798;2023-07-02T11:20:09;10.15;;;5.60;;
17832;SDS011;9041;49.718;21.798;2023-07-02T11:22:37;7.25;;;4.72;;
17832;SDS011;9041;49.718;21.798;2023-07-02T11:25:15;7.00;;;4.82;;
17832;SDS011;9041;49.718;21.798;2023-07-02T11:27:42;10.25;;;5.53;;
17832;SDS011;9041;49.718;21.798;2023-07-02T11:30:09;8.07;;;4.57;;
17832;SDS011;9041;49.718;21.798;2023-07-02T11:32:51;7.82;;;4.38;;
17832;SDS011;9041;49.718;21.798;2023-07-02T11:35:19;11.10;;;5.10;;
17832;SDS011;9041;49.718;21.798;2023-07-02T11:37:46;11.13;;;4.65;;
17832;SDS011;9041;49.718;21.798;2023-07-02T11:40:14;8.75;;;4.97;;
17832;SDS011;9041;49.718;21.798;2023-07-02T11:42:40;6.93;;;4.68;;
17832;SDS011;9041;49.718;21.798;2023-07-02T11:45:07;8.20;;;4.25;;
17832;SDS011;9041;49.718;21.798;2023-07-02T11:47:34;5.97;;;4.10;;
17832;SDS011;9041;49.718;21.798;2023-07-02T11:50:03;8.82;;;4.80;;
17832;SDS011;9041;49.718;21.798;2023-07-02T11:52:30;11.07;;;4.35;;
17832;SDS011;9041;49.718;21.798;2023-07-02T11:55:03;7.47;;;4.57;;
17832;SDS011;9041;49.718;21.798;2023-07-02T11:57:30;8.02;;;4.88;;
17832;SDS011;9041;49.718;21.798;2023-07-02T11:59:56;18.23;;;4.93;;
17832;SDS011;9041;49.718;21.798;2023-07-02T12:02:24;9.48;;;4.55;;
17832;SDS011;9041;49.718;21.798;2023-07-02T12:04:50;9.57;;;4.97;;
17832;SDS011;9041;49.718;21.798;2023-07-02T12:07:19;8.10;;;4.50;;
17832;SDS011;9041;49.718;21.798;2023-07-02T12:09:45;8.35;;;4.22;;
17832;SDS011;9041;49.718;21.798;2023-07-02T12:12:12;7.13;;;4.68;;
17832;SDS011;9041;49.718;21.798;2023-07-02T12:14:39;7.72;;;4.60;;
17832;SDS011;9041;49.718;21.798;2023-07-02T12:17:08;7.95;;;4.78;;
17832;SDS011;9041;49.718;21.798;2023-07-02T12:19:40;10.20;;;4.93;;
17832;SDS011;9041;49.718;21.798;2023-07-02T12:22:07;9.70;;;4.75;;
17832;SDS011;9041;49.718;21.798;2023-07-02T12:24:35;11.00;;;5.32;;
17832;SDS011;9041;49.718;21.798;2023-07-02T12:27:02;9.77;;;5.25;;
17832;SDS011;9041;49.718;21.798;2023-07-02T12:29:29;8.80;;;5.10;;
17832;SDS011;9041;49.718;21.798;2023-07-02T12:31:55;17.48;;;5.55;;
17832;SDS011;9041;49.718;21.798;2023-07-02T12:34:22;12.48;;;5.28;;
17832;SDS011;9041;49.718;21.798;2023-07-02T12:36:48;10.02;;;5.43;;
17832;SDS011;9041;49.718;21.798;2023-07-02T12:39:15;7.70;;;5.32;;
17832;SDS011;9041;49.718;21.798;2023-07-02T12:41:43;9.95;;;5.82;;
17832;SDS011;9041;49.718;21.798;2023-07-02T12:44:10;9.70;;;5.43;;
17832;SDS011;9041;49.718;21.798;2023-07-02T12:46:36;8.88;;;6.38;;
17832;SDS011;9041;49.718;21.798;2023-07-02T12:49:03;9.10;;;5.45;;
17832;SDS011;9041;49.718;21.798;2023-07-02T12:51:30;8.85;;;5.25;;
17832;SDS011;9041;49.718;21.798;2023-07-02T12:54:00;9.63;;;5.28;;
17832;SDS011;9041;49.718;21.798;2023-07-02T12:56:27;9.13;;;5.28;;
17832;SDS011;9041;49.718;21.798;2023-07-02T12:58:55;8.95;;;5.00;;
17832;SDS011;9041;49.718;21.798;2023-07-02T13:01:21;10.77;;;5.43;;
17832;SDS011;9041;49.718;21.798;2023-07-02T13:03:49;12.75;;;5.85;;
17832;SDS011;9041;49.718;21.798;2023-07-02T13:06:15;8.50;;;5.47;;
17832;SDS011;9041;49.718;21.798;2023-07-02T13:08:43;10.10;;;5.22;;
17832;SDS011;9041;49.718;21.798;2023-07-02T13:11:09;8.02;;;5.38;;
17832;SDS011;9041;49.718;21.798;2023-07-02T13:13:36;10.00;;;5.80;;
17832;SDS011;9041;49.718;21.798;2023-07-02T13:16:04;15.05;;;5.53;;
17832;SDS011;9041;49.718;21.798;2023-07-02T13:18:31;10.43;;;5.13;;
17832;SDS011;9041;49.718;21.798;2023-07-02T13:21:03;11.32;;;5.50;;
17832;SDS011;9041;49.718;21.798;2023-07-02T13:23:37;10.30;;;5.35;;
17832;SDS011;9041;49.718;21.798;2023-07-02T13:26:04;10.40;;;5.03;;
17832;SDS011;9041;49.718;21.798;2023-07-02T13:28:30;10.48;;;4.70;;
17832;SDS011;9041;49.718;21.798;2023-07-02T13:30:57;7.45;;;4.88;;
17832;SDS011;9041;49.718;21.798;2023-07-02T13:33:25;7.85;;;4.90;;
17832;SDS011;9041;49.718;21.798;2023-07-02T13:35:54;6.57;;;4.47;;
17832;SDS011;9041;49.718;21.798;2023-07-02T13:38:20;9.10;;;4.88;;
17832;SDS011;9041;49.718;21.798;2023-07-02T13:40:47;6.80;;;4.50;;
17832;SDS011;9041;49.718;21.798;2023-07-02T13:43:14;7.28;;;5.00;;
17832;SDS011;9041;49.718;21.798;2023-07-02T13:45:40;10.27;;;5.20;;
17832;SDS011;9041;49.718;21.798;2023-07-02T13:48:07;6.82;;;4.63;;
17832;SDS011;9041;49.718;21.798;2023-07-02T13:50:35;8.77;;;4.45;;
17832;SDS011;9041;49.718;21.798;2023-07-02T13:53:02;6.10;;;3.90;;
17832;SDS011;9041;49.718;21.798;2023-07-02T13:55:29;6.28;;;4.10;;
17832;SDS011;9041;49.718;21.798;2023-07-02T13:58:06;8.02;;;4.07;;
17832;SDS011;9041;49.718;21.798;2023-07-02T14:00:34;8.65;;;3.70;;
17832;SDS011;9041;49.718;21.798;2023-07-02T14:03:01;6.05;;;3.55;;
17832;SDS011;9041;49.718;21.798;2023-07-02T14:05:28;5.82;;;3.83;;
17832;SDS011;9041;49.718;21.798;2023-07-02T14:07:55;7.28;;;3.63;;
17832;SDS011;9041;49.718;21.798;2023-07-02T14:10:21;6.32;;;3.70;;
17832;SDS011;9041;49.718;21.798;2023-07-02T14:12:48;8.30;;;4.10;;
17832;SDS011;9041;49.718;21.798;2023-07-02T14:15:15;9.32;;;3.45;;
17832;SDS011;9041;49.718;21.798;2023-07-02T14:17:43;6.90;;;3.72;;
17832;SDS011;9041;49.718;21.798;2023-07-02T14:20:10;6.90;;;3.97;;
17832;SDS011;9041;49.718;21.798;2023-07-02T14:22:37;9.13;;;3.65;;
17832;SDS011;9041;49.718;21.798;2023-07-02T14:25:04;5.88;;;3.90;;
17832;SDS011;9041;49.718;21.798;2023-07-02T14:27:31;7.13;;;3.70;;
17832;SDS011;9041;49.718;21.798;2023-07-02T14:29:58;4.93;;;3.47;;
17832;SDS011;9041;49.718;21.798;2023-07-02T14:32:26;9.52;;;3.42;;
17832;SDS011;9041;49.718;21.798;2023-07-02T14:34:54;7.65;;;3.78;;